Amy C. Mc Allister — WCZ9520 — position and weather

sailwx.info

Track history (hours):
 
Tides and Currents Weather Stations Pressure Air Temp Water Temp Dewpoint Dewpoint Depression Visibility Wind Speed Wind Dir Waves Ship Positions

Amy C. Mc Allister

Owner: MC ALLISTER TOWING & TRANSPORTATION INC, NEW YORK, NY. More information available from US FCC via Universal Licensing System and Coast Guard Vessel Documentation Center.

Last reported at 2015-Mar-02 18:32 UTC. Time now 2015-Mar-02 20:34 UTC.
Position N 41°32' W 071°20'.

Length 27 m; draft 4.9 m.

Type: Towing. MMSI: 366995040.

Date/timePositionNaut miles runAvg speedWind from/ knotsBaromVisibWave heightAir tempDewpointWater temp
2015-Mar-02 18:32N 41°32' W 071°20'7 7.3
2015-Mar-02 17:33N 41°39' W 071°19'7 7.1
2015-Mar-02 16:33N 41°46' W 071°23'3 2.3
2015-Mar-02 15:29N 41°48' W 071°24'0 0.1
2015-Mar-02 14:33N 41°48' W 071°24'0 0.0
2015-Mar-02 13:34N 41°48' W 071°24'0 0.0
2015-Mar-02 12:34N 41°48' W 071°24'0 0.0
2015-Mar-02 11:34N 41°48' W 071°24'0 0.0
2015-Mar-02 10:34N 41°48' W 071°24'0 0.0
2015-Mar-02 09:34N 41°48' W 071°24'0 0.0
2015-Mar-02 08:34N 41°48' W 071°24'0 0.0
2015-Mar-02 05:33N 41°48' W 071°24'0 0.0
2015-Mar-02 04:34N 41°48' W 071°24'0 0.0
2015-Mar-02 03:34N 41°48' W 071°24'0 0.0
2015-Mar-02 02:34N 41°48' W 071°24'0 0.0
2015-Mar-02 01:34N 41°48' W 071°24'0 0.0
2015-Mar-02 00:34N 41°48' W 071°24'0 0.0
2015-Mar-01 23:34N 41°48' W 071°24'0 0.0
2015-Mar-01 22:34N 41°48' W 071°24'0 0.0
2015-Mar-01 21:34N 41°48' W 071°24'0 0.0
2015-Mar-01 20:34N 41°48' W 071°24'0 0.0
2015-Mar-01 19:34N 41°48' W 071°24'0 0.0
2015-Mar-01 18:34N 41°48' W 071°24'0 0.0
2015-Mar-01 17:34N 41°48' W 071°24'0 0.0
2015-Mar-01 16:33N 41°48' W 071°24'2 1.7
2015-Mar-01 15:33N 41°47' W 071°22'6 6.1
2015-Mar-01 14:33N 41°41' W 071°19'4 4.4
2015-Mar-01 13:34N 41°37' W 071°17'1 1.2
2015-Mar-01 12:34N 41°36' W 071°18'0 0.0
2015-Mar-01 11:34N 41°36' W 071°18'0 0.0
2015-Mar-01 10:34N 41°36' W 071°18'0 0.1
2015-Mar-01 09:33N 41°36' W 071°18'0 0.0
2015-Mar-01 08:34N 41°36' W 071°18'0 0.0
2015-Mar-01 07:33N 41°36' W 071°18'0 0.0
2015-Mar-01 06:34N 41°36' W 071°18'0 0.0
2015-Mar-01 05:33N 41°36' W 071°18'0 0.0
2015-Mar-01 04:33N 41°36' W 071°18'0 0.0
2015-Mar-01 03:34N 41°36' W 071°18'0 0.0
2015-Mar-01 02:33N 41°36' W 071°18'0 0.0
2015-Mar-01 01:34N 41°36' W 071°18'0 0.0
2015-Mar-01 00:33N 41°36' W 071°18'0 0.0
2015-Feb-28 21:19N 41°36' W 071°18'0 0.0
2015-Feb-28 18:33N 41°36' W 071°18'0 0.1
2015-Feb-28 17:33N 41°36' W 071°18'2 1.9
2015-Feb-28 16:23N 41°34' W 071°19'7 8.5
2015-Feb-28 15:33N 41°27' W 071°23'8 8.4
2015-Feb-28 14:33N 41°19' W 071°26'9 8.8
2015-Feb-28 13:33N 41°18' W 071°38'9 9.1
2015-Feb-28 12:33N 41°16' W 071°49'9 8.5
2015-Feb-28 11:34N 41°14' W 072°00'8 7.8
2015-Feb-28 10:33N 41°14' W 072°11'7 7.5
2015-Feb-28 09:33N 41°12' W 072°20'7 7.4
2015-Feb-28 08:34N 41°10' W 072°30'8 8.3
2015-Feb-28 07:33N 41°11' W 072°41'9 8.8
2015-Feb-28 06:34N 41°11' W 072°53'5 4.6
2015-Feb-28 05:33N 41°15' W 072°55'3 2.4
2015-Feb-28 04:30N 41°18' W 072°54'0 0.1
2015-Feb-28 03:31N 41°18' W 072°54'0 0.0
2015-Feb-28 02:30N 41°18' W 072°54'0 0.0
2015-Feb-28 01:28N 41°18' W 072°54'0 0.0
2015-Feb-28 00:33N 41°18' W 072°54'0 0.0
2015-Feb-27 23:25N 41°18' W 072°54'0 0.0
2015-Feb-27 20:24N 41°18' W 072°54'0 0.0
2015-Feb-27 18:21N 41°18' W 072°54'0 0.0
2015-Feb-27 16:28N 41°18' W 072°54'0 0.0
2015-Feb-27 15:13N 41°18' W 072°54'0 0.0
2015-Feb-27 14:19N 41°18' W 072°54'0 0.0
2015-Feb-27 13:23N 41°18' W 072°54'0 0.0
2015-Feb-27 12:33N 41°18' W 072°54'3 3.3
2015-Feb-27 11:33N 41°15' W 072°55'7 6.5
2015-Feb-27 10:34N 41°09' W 072°60'8 7.6
2015-Feb-27 09:34N 41°05' W 073°08'9 7.6
2015-Feb-27 08:20N 41°01' W 073°20'6 7.4
2015-Feb-27 07:33N 40°59' W 073°27'8 7.6
2015-Feb-27 06:33N 40°56' W 073°36'8 7.8
2015-Feb-27 05:33N 40°52' W 073°45'8 6.7
2015-Feb-27 04:25N 40°48' W 073°53'5 6.3
2015-Feb-27 03:33N 40°44' W 073°58'5 4.7
2015-Feb-27 02:31N 40°40' W 074°02'0 0.0
2015-Feb-27 01:32N 40°40' W 074°02'0 0.0
2015-Feb-27 00:33N 40°40' W 074°02'5 5.0
2015-Feb-26 23:31N 40°39' W 074°08'7 5.1
2015-Feb-26 22:11N 40°33' W 074°14'6 2.3
2015-Feb-26 19:27N 40°39' W 074°10'0 0.5
2015-Feb-26 18:32N 40°38' W 074°10'0 0.0
2015-Feb-26 17:32N 40°38' W 074°10'0 0.0
2015-Feb-26 16:25N 40°38' W 074°10'0 0.0
2015-Feb-26 15:25N 40°38' W 074°10'0 0.0
2015-Feb-26 14:33N 40°38' W 074°10'0 0.0
2015-Feb-26 13:28N 40°38' W 074°10'0 0.0
2015-Feb-26 01:05N 40°38' W 074°10'1 1.4
2015-Feb-26 00:07N 40°38' W 074°12'8 4.0
2015-Feb-25 22:15N 40°31' W 074°15'9 5.3
2015-Feb-25 20:28N 40°39' W 074°07'4 3.9
2015-Feb-25 19:32N 40°39' W 074°03'0 0.0
2015-Feb-25 18:34N 40°39' W 074°02'0 0.0
2015-Feb-25 17:33N 40°39' W 074°03'0 0.0
2015-Feb-25 16:33N 40°39' W 074°03'0 0.0
2015-Feb-25 15:33N 40°39' W 074°03'0 0.1
2015-Feb-25 14:33N 40°39' W 074°03'0 0.0
2015-Feb-25 13:33N 40°39' W 074°03'0 0.0
2015-Feb-25 12:33N 40°39' W 074°03'0 0.0
2015-Feb-25 11:25N 40°39' W 074°03'0 0.0
2015-Feb-25 10:33N 40°39' W 074°03'0 0.0
2015-Feb-25 09:30N 40°39' W 074°03'0 0.1
2015-Feb-25 08:33N 40°39' W 074°03'0 0.1
2015-Feb-25 07:33N 40°39' W 074°03'2 1.6
2015-Feb-25 06:34N 40°41' W 074°02'7 6.7
2015-Feb-25 05:34N 40°47' W 073°60'  
2015-Feb-22 09:33N 40°45' W 074°01'6 5.7
2015-Feb-22 08:33N 40°40' W 074°03'7 6.6
2015-Feb-22 07:34N 40°39' W 074°11'2 0.4
2015-Feb-22 02:12N 40°36' W 074°12'1 0.2
2015-Feb-21 20:09N 40°35' W 074°12'1 1.5
2015-Feb-21 19:15N 40°34' W 074°13'5 4.5
2015-Feb-21 18:12N 40°39' W 074°11'3 4.7
2015-Feb-21 17:33N 40°39' W 074°07'4 3.6
2015-Feb-21 16:34N 40°39' W 074°03'0 0.0
2015-Feb-21 15:33N 40°39' W 074°03'0 0.0
2015-Feb-21 14:34N 40°39' W 074°03'0 0.0
2015-Feb-21 13:33N 40°39' W 074°03'0 0.0
2015-Feb-21 12:33N 40°39' W 074°03'0 0.1
2015-Feb-21 11:33N 40°39' W 074°03'0 0.1
2015-Feb-21 10:34N 40°39' W 074°03'0 0.0
2015-Feb-21 09:34N 40°39' W 074°03'0 0.0
2015-Feb-21 08:33N 40°39' W 074°03'0 0.0
2015-Feb-21 07:34N 40°39' W 074°03'0 0.0
2015-Feb-21 06:33N 40°39' W 074°03'0 0.0
2015-Feb-21 05:33N 40°39' W 074°03'0 0.1
2015-Feb-21 04:33N 40°39' W 074°03'0 0.1
2015-Feb-21 03:33N 40°39' W 074°03'3 2.0
2015-Feb-21 02:06N 40°39' W 074°07'0 0.0
2015-Feb-21 01:33N 40°39' W 074°07'3 0.6
2015-Feb-20 21:23N 40°38' W 074°10'0 0.0
2015-Feb-20 20:33N 40°38' W 074°10'0 0.0
2015-Feb-20 19:32N 40°38' W 074°10'  
Track history (hours):
 
Tides and Currents Weather Stations Pressure Air Temp Water Temp Dewpoint Dewpoint Depression Visibility Wind Speed Wind Dir Waves Ship Positions

Amy C. Mc Allister

Owner: MC ALLISTER TOWING & TRANSPORTATION INC, NEW YORK, NY. More information available from US FCC via Universal Licensing System and Coast Guard Vessel Documentation Center.

Last reported at 2015-Mar-02 18:32 UTC. Time now 2015-Mar-02 20:34 UTC.
Position N 41°32' W 071°20'.

Length 27 m; draft 4.9 m.

Type: Towing. MMSI: 366995040.

Date/timePositionNaut miles runAvg speedWind from/ knotsBaromVisibWave heightAir tempDewpointWater temp
2015-Mar-02 18:32N 41°32' W 071°20'7 7.3
2015-Mar-02 17:33N 41°39' W 071°19'7 7.1
2015-Mar-02 16:33N 41°46' W 071°23'3 2.3
2015-Mar-02 15:29N 41°48' W 071°24'0 0.1
2015-Mar-02 14:33N 41°48' W 071°24'0 0.0
2015-Mar-02 13:34N 41°48' W 071°24'0 0.0
2015-Mar-02 12:34N 41°48' W 071°24'0 0.0
2015-Mar-02 11:34N 41°48' W 071°24'0 0.0
2015-Mar-02 10:34N 41°48' W 071°24'0 0.0
2015-Mar-02 09:34N 41°48' W 071°24'0 0.0
2015-Mar-02 08:34N 41°48' W 071°24'0 0.0
2015-Mar-02 05:33N 41°48' W 071°24'0 0.0
2015-Mar-02 04:34N 41°48' W 071°24'0 0.0
2015-Mar-02 03:34N 41°48' W 071°24'0 0.0
2015-Mar-02 02:34N 41°48' W 071°24'0 0.0
2015-Mar-02 01:34N 41°48' W 071°24'0 0.0
2015-Mar-02 00:34N 41°48' W 071°24'0 0.0
2015-Mar-01 23:34N 41°48' W 071°24'0 0.0
2015-Mar-01 22:34N 41°48' W 071°24'0 0.0
2015-Mar-01 21:34N 41°48' W 071°24'0 0.0
2015-Mar-01 20:34N 41°48' W 071°24'0 0.0
2015-Mar-01 19:34N 41°48' W 071°24'0 0.0
2015-Mar-01 18:34N 41°48' W 071°24'0 0.0
2015-Mar-01 17:34N 41°48' W 071°24'0 0.0
2015-Mar-01 16:33N 41°48' W 071°24'2 1.7
2015-Mar-01 15:33N 41°47' W 071°22'6 6.1
2015-Mar-01 14:33N 41°41' W 071°19'4 4.4
2015-Mar-01 13:34N 41°37' W 071°17'1 1.2
2015-Mar-01 12:34N 41°36' W 071°18'0 0.0
2015-Mar-01 11:34N 41°36' W 071°18'0 0.0
2015-Mar-01 10:34N 41°36' W 071°18'0 0.1
2015-Mar-01 09:33N 41°36' W 071°18'0 0.0
2015-Mar-01 08:34N 41°36' W 071°18'0 0.0
2015-Mar-01 07:33N 41°36' W 071°18'0 0.0
2015-Mar-01 06:34N 41°36' W 071°18'0 0.0
2015-Mar-01 05:33N 41°36' W 071°18'0 0.0
2015-Mar-01 04:33N 41°36' W 071°18'0 0.0
2015-Mar-01 03:34N 41°36' W 071°18'0 0.0
2015-Mar-01 02:33N 41°36' W 071°18'0 0.0
2015-Mar-01 01:34N 41°36' W 071°18'0 0.0
2015-Mar-01 00:33N 41°36' W 071°18'0 0.0
2015-Feb-28 21:19N 41°36' W 071°18'0 0.0
2015-Feb-28 18:33N 41°36' W 071°18'0 0.1
2015-Feb-28 17:33N 41°36' W 071°18'2 1.9
2015-Feb-28 16:23N 41°34' W 071°19'7 8.5
2015-Feb-28 15:33N 41°27' W 071°23'8 8.4
2015-Feb-28 14:33N 41°19' W 071°26'9 8.8
2015-Feb-28 13:33N 41°18' W 071°38'9 9.1
2015-Feb-28 12:33N 41°16' W 071°49'9 8.5
2015-Feb-28 11:34N 41°14' W 072°00'8 7.8
2015-Feb-28 10:33N 41°14' W 072°11'7 7.5
2015-Feb-28 09:33N 41°12' W 072°20'7 7.4
2015-Feb-28 08:34N 41°10' W 072°30'8 8.3
2015-Feb-28 07:33N 41°11' W 072°41'9 8.8
2015-Feb-28 06:34N 41°11' W 072°53'5 4.6
2015-Feb-28 05:33N 41°15' W 072°55'3 2.4
2015-Feb-28 04:30N 41°18' W 072°54'0 0.1
2015-Feb-28 03:31N 41°18' W 072°54'0 0.0
2015-Feb-28 02:30N 41°18' W 072°54'0 0.0
2015-Feb-28 01:28N 41°18' W 072°54'0 0.0
2015-Feb-28 00:33N 41°18' W 072°54'0 0.0
2015-Feb-27 23:25N 41°18' W 072°54'0 0.0
2015-Feb-27 20:24N 41°18' W 072°54'0 0.0
2015-Feb-27 18:21N 41°18' W 072°54'0 0.0
2015-Feb-27 16:28N 41°18' W 072°54'0 0.0
2015-Feb-27 15:13N 41°18' W 072°54'0 0.0
2015-Feb-27 14:19N 41°18' W 072°54'0 0.0
2015-Feb-27 13:23N 41°18' W 072°54'0 0.0
2015-Feb-27 12:33N 41°18' W 072°54'3 3.3
2015-Feb-27 11:33N 41°15' W 072°55'7 6.5
2015-Feb-27 10:34N 41°09' W 072°60'8 7.6
2015-Feb-27 09:34N 41°05' W 073°08'9 7.6
2015-Feb-27 08:20N 41°01' W 073°20'6 7.4
2015-Feb-27 07:33N 40°59' W 073°27'8 7.6
2015-Feb-27 06:33N 40°56' W 073°36'8 7.8
2015-Feb-27 05:33N 40°52' W 073°45'8 6.7
2015-Feb-27 04:25N 40°48' W 073°53'5 6.3
2015-Feb-27 03:33N 40°44' W 073°58'5 4.7
2015-Feb-27 02:31N 40°40' W 074°02'0 0.0
2015-Feb-27 01:32N 40°40' W 074°02'0 0.0
2015-Feb-27 00:33N 40°40' W 074°02'5 5.0
2015-Feb-26 23:31N 40°39' W 074°08'7 5.1
2015-Feb-26 22:11N 40°33' W 074°14'6 2.3
2015-Feb-26 19:27N 40°39' W 074°10'0 0.5
2015-Feb-26 18:32N 40°38' W 074°10'0 0.0
2015-Feb-26 17:32N 40°38' W 074°10'0 0.0
2015-Feb-26 16:25N 40°38' W 074°10'0 0.0
2015-Feb-26 15:25N 40°38' W 074°10'0 0.0
2015-Feb-26 14:33N 40°38' W 074°10'0 0.0
2015-Feb-26 13:28N 40°38' W 074°10'0 0.0
2015-Feb-26 01:05N 40°38' W 074°10'1 1.4
2015-Feb-26 00:07N 40°38' W 074°12'8 4.0
2015-Feb-25 22:15N 40°31' W 074°15'9 5.3
2015-Feb-25 20:28N 40°39' W 074°07'4 3.9
2015-Feb-25 19:32N 40°39' W 074°03'0 0.0
2015-Feb-25 18:34N 40°39' W 074°02'0 0.0
2015-Feb-25 17:33N 40°39' W 074°03'0 0.0
2015-Feb-25 16:33N 40°39' W 074°03'0 0.0
2015-Feb-25 15:33N 40°39' W 074°03'0 0.1
2015-Feb-25 14:33N 40°39' W 074°03'0 0.0
2015-Feb-25 13:33N 40°39' W 074°03'0 0.0
2015-Feb-25 12:33N 40°39' W 074°03'0 0.0
2015-Feb-25 11:25N 40°39' W 074°03'0 0.0
2015-Feb-25 10:33N 40°39' W 074°03'0 0.0
2015-Feb-25 09:30N 40°39' W 074°03'0 0.1
2015-Feb-25 08:33N 40°39' W 074°03'0 0.1
2015-Feb-25 07:33N 40°39' W 074°03'2 1.6
2015-Feb-25 06:34N 40°41' W 074°02'7 6.7
2015-Feb-25 05:34N 40°47' W 073°60'  
2015-Feb-22 09:33N 40°45' W 074°01'6 5.7
2015-Feb-22 08:33N 40°40' W 074°03'7 6.6
2015-Feb-22 07:34N 40°39' W 074°11'2 0.4
2015-Feb-22 02:12N 40°36' W 074°12'1 0.2
2015-Feb-21 20:09N 40°35' W 074°12'1 1.5
2015-Feb-21 19:15N 40°34' W 074°13'5 4.5
2015-Feb-21 18:12N 40°39' W 074°11'3 4.7
2015-Feb-21 17:33N 40°39' W 074°07'4 3.6
2015-Feb-21 16:34N 40°39' W 074°03'0 0.0
2015-Feb-21 15:33N 40°39' W 074°03'0 0.0
2015-Feb-21 14:34N 40°39' W 074°03'0 0.0
2015-Feb-21 13:33N 40°39' W 074°03'0 0.0
2015-Feb-21 12:33N 40°39' W 074°03'0 0.1
2015-Feb-21 11:33N 40°39' W 074°03'0 0.1
2015-Feb-21 10:34N 40°39' W 074°03'0 0.0
2015-Feb-21 09:34N 40°39' W 074°03'0 0.0
2015-Feb-21 08:33N 40°39' W 074°03'0 0.0
2015-Feb-21 07:34N 40°39' W 074°03'0 0.0
2015-Feb-21 06:33N 40°39' W 074°03'0 0.0
2015-Feb-21 05:33N 40°39' W 074°03'0 0.1
2015-Feb-21 04:33N 40°39' W 074°03'0 0.1
2015-Feb-21 03:33N 40°39' W 074°03'3 2.0
2015-Feb-21 02:06N 40°39' W 074°07'0 0.0
2015-Feb-21 01:33N 40°39' W 074°07'3 0.6
2015-Feb-20 21:23N 40°38' W 074°10'0 0.0
2015-Feb-20 20:33N 40°38' W 074°10'0 0.0
2015-Feb-20 19:32N 40°38' W 074°10'  

Dump ship's entire track history